createdAt,value
2022-11-16T00:01:02.918Z,1.58
2022-11-16T00:03:33.874Z,1.60
2022-11-16T00:06:03.895Z,1.15
2022-11-16T00:08:33.922Z,0.93
2022-11-16T00:11:06.629Z,0.70
2022-11-16T00:16:03.650Z,0.93
2022-11-16T00:18:34.263Z,0.55
2022-11-16T00:21:05.506Z,1.10
2022-11-16T00:23:36.346Z,1.67
2022-11-16T00:26:06.134Z,1.27
2022-11-16T00:28:35.524Z,1.30
2022-11-16T00:31:05.788Z,1.58
2022-11-16T00:33:36.132Z,1.05
2022-11-16T00:36:06.677Z,1.83
2022-11-16T00:38:35.731Z,1.60
2022-11-16T00:41:04.308Z,1.00
2022-11-16T00:43:33.171Z,1.13
2022-11-16T00:46:01.407Z,1.00
2022-11-16T00:48:29.740Z,1.40
2022-11-16T00:50:59.397Z,1.05
2022-11-16T00:53:27.708Z,1.27
2022-11-16T00:55:56.134Z,1.45
2022-11-16T00:58:25.542Z,0.50
2022-11-16T01:01:06.088Z,0.80
2022-11-16T01:03:34.353Z,1.60
2022-11-16T01:06:08.347Z,1.10
2022-11-16T01:08:39.427Z,1.60
2022-11-16T01:11:26.366Z,1.08
2022-11-16T01:13:55.116Z,0.60
2022-11-16T01:16:24.825Z,0.68
2022-11-16T01:18:55.364Z,1.02
2022-11-16T01:21:25.752Z,1.58
2022-11-16T01:23:54.358Z,1.25
2022-11-16T01:26:22.635Z,1.45
2022-11-16T01:28:51.113Z,1.42
2022-11-16T01:31:19.507Z,1.98
2022-11-16T01:33:50.384Z,1.85
2022-11-16T01:36:24.937Z,1.63
2022-11-16T01:38:55.463Z,1.88
2022-11-16T01:41:28.844Z,1.13
2022-11-16T01:44:04.559Z,1.02
2022-11-16T01:46:38.936Z,1.63
2022-11-16T01:49:14.037Z,2.42
2022-11-16T01:51:48.828Z,2.28
2022-11-16T01:54:17.775Z,1.55
2022-11-16T01:57:04.119Z,3.72
2022-11-16T01:59:37.708Z,2.67
2022-11-16T02:02:07.915Z,3.33
2022-11-16T02:04:36.381Z,2.28
2022-11-16T02:07:17.076Z,3.58
2022-11-16T02:10:01.246Z,2.45
2022-11-16T02:12:50.943Z,2.58
2022-11-16T02:15:28.595Z,2.13
2022-11-16T02:18:18.574Z,1.67
2022-11-16T02:21:20.571Z,3.08
2022-11-16T02:24:12.937Z,1.35
2022-11-16T02:27:17.084Z,1.90
2022-11-16T02:29:51.229Z,1.95
2022-11-16T02:32:25.773Z,1.42
2022-11-16T02:34:58.625Z,2.33
2022-11-16T02:37:30.300Z,0.93
2022-11-16T02:40:02.506Z,1.40
2022-11-16T02:42:37.097Z,1.25
2022-11-16T02:45:13.581Z,3.03
2022-11-16T02:47:45.200Z,1.95
2022-11-16T02:50:18.056Z,4.07
2022-11-16T02:52:46.233Z,1.13
2022-11-16T02:55:15.373Z,2.00
2022-11-16T02:57:52.642Z,2.60
2022-11-16T03:00:28.492Z,2.22
2022-11-16T03:03:11.768Z,2.53
2022-11-16T03:05:46.149Z,1.92
2022-11-16T03:08:21.509Z,2.20
2022-11-16T03:11:12.566Z,1.90
2022-11-16T03:13:43.139Z,1.90
2022-11-16T03:16:17.128Z,2.10
2022-11-16T03:18:47.733Z,2.83
2022-11-16T03:21:24.294Z,2.00
2022-11-16T03:23:52.760Z,2.25
2022-11-16T03:26:25.651Z,1.48
2022-11-16T03:28:59.692Z,2.40
2022-11-16T03:31:32.538Z,1.10
2022-11-16T03:34:05.851Z,1.27
2022-11-16T03:36:37.207Z,1.63
2022-11-16T03:39:11.724Z,0.82
2022-11-16T03:41:43.396Z,1.58
2022-11-16T03:44:15.327Z,1.08
2022-11-16T03:46:46.730Z,1.00
2022-11-16T03:49:16.285Z,0.63
2022-11-16T03:51:44.776Z,1.23
2022-11-16T03:54:13.069Z,1.05
2022-11-16T03:56:41.807Z,0.75
2022-11-16T03:59:10.636Z,1.20
2022-11-16T04:01:43.373Z,1.20
2022-11-16T04:04:29.162Z,1.25
2022-11-16T04:07:16.048Z,1.52
2022-11-16T04:10:01.618Z,1.10
2022-11-16T04:12:47.682Z,2.75
2022-11-16T04:15:33.157Z,0.75
2022-11-16T04:18:19.726Z,1.00
2022-11-16T04:21:06.892Z,1.20
2022-11-16T04:23:52.892Z,0.65
2022-11-16T04:26:41.067Z,0.93
2022-11-16T04:29:08.254Z,1.60
2022-11-16T04:31:54.288Z,1.23
2022-11-16T04:34:40.209Z,1.95
2022-11-16T04:37:28.790Z,1.88
2022-11-16T04:39:57.019Z,1.75
2022-11-16T04:42:25.283Z,2.35
2022-11-16T04:45:10.701Z,1.80
2022-11-16T04:47:46.143Z,1.98
2022-11-16T04:50:14.322Z,2.30
2022-11-16T04:52:45.627Z,1.60
2022-11-16T04:55:16.041Z,2.90
2022-11-16T04:57:46.617Z,2.42
2022-11-16T05:00:15.984Z,2.40
2022-11-16T05:02:45.169Z,1.55
2022-11-16T05:05:13.809Z,3.03
2022-11-16T05:07:46.107Z,2.38
2022-11-16T05:10:20.940Z,1.98
2022-11-16T05:12:50.736Z,3.35
2022-11-16T05:15:19.985Z,1.80
2022-11-16T05:17:51.149Z,1.85
2022-11-16T05:20:42.029Z,2.65
2022-11-16T05:23:26.989Z,1.98
2022-11-16T05:25:57.358Z,1.42
2022-11-16T05:28:29.255Z,1.48
2022-11-16T05:30:58.641Z,1.63
2022-11-16T05:33:29.096Z,1.60
2022-11-16T05:35:57.323Z,1.95
2022-11-16T05:38:29.079Z,1.98
2022-11-16T05:40:59.871Z,1.67
2022-11-16T05:43:30.579Z,1.88
2022-11-16T05:46:14.657Z,1.40
2022-11-16T05:48:43.629Z,2.63
2022-11-16T05:51:12.141Z,2.70
2022-11-16T05:53:42.728Z,1.92
2022-11-16T05:56:14.715Z,2.85
2022-11-16T05:58:44.713Z,2.35
2022-11-16T06:01:13.525Z,3.05
2022-11-16T06:03:42.951Z,1.98
2022-11-16T06:06:11.632Z,3.00
2022-11-16T06:08:41.436Z,3.13
2022-11-16T06:11:14.745Z,2.55
2022-11-16T06:13:45.700Z,2.20
2022-11-16T06:16:14.637Z,2.47
2022-11-16T06:18:44.393Z,4.55
2022-11-16T06:21:17.585Z,1.95
2022-11-16T06:26:17.608Z,9.10
2022-11-16T06:28:46.849Z,3.00
2022-11-16T06:31:15.562Z,2.85
2022-11-16T06:33:43.743Z,2.30
2022-11-16T06:36:20.328Z,2.80
2022-11-16T06:38:51.305Z,2.42
2022-11-16T06:41:21.020Z,2.57
2022-11-16T06:43:51.013Z,2.67
2022-11-16T06:46:22.368Z,2.53
2022-11-16T06:48:50.654Z,2.90
2022-11-16T06:51:19.578Z,2.65
2022-11-16T06:53:50.469Z,2.28
2022-11-16T06:56:19.656Z,2.95
2022-11-16T06:58:53.786Z,2.30
2022-11-16T07:01:24.656Z,1.95
2022-11-16T07:03:59.759Z,2.35
2022-11-16T07:06:29.197Z,1.95
2022-11-16T07:08:59.821Z,2.60
2022-11-16T07:11:31.859Z,1.90
2022-11-16T07:14:00.538Z,1.52
2022-11-16T07:16:30.441Z,2.13
2022-11-16T07:19:02.150Z,2.45
2022-11-16T07:21:32.492Z,1.92
2022-11-16T07:24:05.261Z,2.88
2022-11-16T07:26:34.345Z,3.13
2022-11-16T07:29:09.956Z,2.33
2022-11-16T07:34:33.460Z,4.20
2022-11-16T07:37:08.178Z,2.35
2022-11-16T07:39:37.739Z,3.03
2022-11-16T07:42:11.834Z,3.88
2022-11-16T07:45:07.767Z,2.90
2022-11-16T07:47:41.090Z,2.33
2022-11-16T07:50:14.960Z,2.35
2022-11-16T07:52:46.476Z,2.55
2022-11-16T07:55:25.509Z,2.72
2022-11-16T07:57:54.119Z,2.60
2022-11-16T08:00:24.625Z,3.67
2022-11-16T08:03:00.442Z,2.13
2022-11-16T08:05:29.733Z,1.92
2022-11-16T08:07:57.846Z,2.45
2022-11-16T08:10:30.169Z,2.30
2022-11-16T08:13:00.125Z,2.13
2022-11-16T08:15:28.415Z,2.55
2022-11-16T08:17:58.673Z,3.33
2022-11-16T08:20:28.857Z,2.45
2022-11-16T08:23:00.998Z,2.78
2022-11-16T08:25:34.003Z,3.42
2022-11-16T08:28:02.809Z,2.45
2022-11-16T08:30:31.855Z,2.28
2022-11-16T08:33:01.414Z,2.38
2022-11-16T08:35:29.780Z,2.65
2022-11-16T08:37:58.589Z,2.55
2022-11-16T08:40:29.082Z,3.20
2022-11-16T08:42:59.583Z,2.60
2022-11-16T08:45:28.069Z,3.33
2022-11-16T08:48:03.554Z,2.38
2022-11-16T08:50:55.503Z,2.85
2022-11-16T08:53:22.665Z,2.67
2022-11-16T08:55:50.871Z,2.78
2022-11-16T08:58:20.716Z,3.20
2022-11-16T09:00:48.971Z,2.65
2022-11-16T09:03:17.107Z,2.75
2022-11-16T09:05:46.821Z,2.67
2022-11-16T09:08:14.978Z,2.97
2022-11-16T09:10:43.415Z,2.08
2022-11-16T09:13:11.612Z,2.40
2022-11-16T09:15:41.154Z,2.40
2022-11-16T09:18:09.233Z,3.70
2022-11-16T09:20:37.393Z,2.28
2022-11-16T09:23:05.565Z,2.92
2022-11-16T09:25:35.105Z,2.75
2022-11-16T09:28:03.238Z,2.63
2022-11-16T09:30:31.507Z,2.97
2022-11-16T09:33:01.156Z,2.38
2022-11-16T09:35:29.297Z,3.33
2022-11-16T09:37:57.396Z,1.90
2022-11-16T09:40:29.554Z,2.25
2022-11-16T09:43:07.500Z,2.40
2022-11-16T09:45:45.645Z,3.25
2022-11-16T09:48:17.521Z,3.65
2022-11-16T09:50:48.235Z,3.40
2022-11-16T09:53:31.744Z,2.42
2022-11-16T09:56:04.199Z,4.50
2022-11-16T09:58:40.066Z,2.97
2022-11-16T10:01:22.374Z,3.92
2022-11-16T10:03:56.969Z,2.95
2022-11-16T10:06:34.174Z,3.67
2022-11-16T10:09:02.420Z,3.13
2022-11-16T10:12:02.922Z,3.28
2022-11-16T10:15:01.594Z,2.17
2022-11-16T10:17:41.520Z,2.95
2022-11-16T10:20:30.880Z,3.28
2022-11-16T10:23:09.867Z,3.40
2022-11-16T10:25:44.138Z,2.95
2022-11-16T10:28:31.544Z,2.45
2022-11-16T10:31:08.324Z,2.80
2022-11-16T10:33:39.597Z,2.53
2022-11-16T10:36:14.128Z,2.83
2022-11-16T10:38:44.228Z,2.92
2022-11-16T10:41:20.509Z,2.33
2022-11-16T10:43:50.598Z,2.58
2022-11-16T10:46:25.073Z,3.30
2022-11-16T10:49:02.166Z,2.92
2022-11-16T10:51:35.494Z,2.22
2022-11-16T10:54:04.733Z,3.00
2022-11-16T10:56:37.528Z,3.33
2022-11-16T10:59:07.404Z,2.25
2022-11-16T11:01:38.826Z,3.47
2022-11-16T11:04:22.093Z,3.00
2022-11-16T11:06:53.396Z,3.78
2022-11-16T11:09:26.970Z,4.28
2022-11-16T11:12:21.793Z,3.13
2022-11-16T11:15:01.082Z,3.25
2022-11-16T11:17:30.254Z,4.25
2022-11-16T11:20:00.708Z,2.75
2022-11-16T11:22:31.720Z,2.88
2022-11-16T11:25:03.313Z,3.40
2022-11-16T11:27:35.139Z,3.42
2022-11-16T11:30:04.088Z,2.60
2022-11-16T11:32:41.567Z,2.83
2022-11-16T11:35:24.077Z,1.77
2022-11-16T11:37:56.591Z,3.78
2022-11-16T11:42:57.376Z,1.52
2022-11-16T11:45:34.165Z,1.40
2022-11-16T11:48:04.283Z,2.42
2022-11-16T11:50:43.774Z,2.20
2022-11-16T11:53:25.267Z,2.90
2022-11-16T11:55:58.389Z,1.48
2022-11-16T11:58:31.533Z,1.00
2022-11-16T12:01:22.207Z,1.00
2022-11-16T12:04:45.332Z,1.42
2022-11-16T12:07:26.551Z,1.05
2022-11-16T12:10:02.085Z,0.73
2022-11-16T12:12:44.896Z,1.23
2022-11-16T12:15:33.256Z,1.52
2022-11-16T12:18:15.485Z,0.90
2022-11-16T12:20:52.212Z,0.60
2022-11-16T12:23:50.565Z,0.38
2022-11-16T12:26:30.449Z,1.13
2022-11-16T12:29:14.060Z,0.45
2022-11-16T12:32:03.191Z,0.98
2022-11-16T12:34:45.786Z,0.22
2022-11-16T12:37:19.612Z,0.50
2022-11-16T12:40:01.617Z,1.55
2022-11-16T12:42:43.029Z,0.52
2022-11-16T12:45:34.357Z,0.22
2022-11-16T12:48:30.288Z,0.20
2022-11-16T12:51:05.007Z,0.20
2022-11-16T12:54:14.452Z,0.40
2022-11-16T12:56:51.944Z,0.20
2022-11-16T12:59:34.735Z,0.70
2022-11-16T13:02:14.005Z,0.25
2022-11-16T13:04:46.453Z,0.28
2022-11-16T13:07:21.420Z,0.45
2022-11-16T13:09:54.254Z,0.30
2022-11-16T13:12:24.554Z,0.25
2022-11-16T13:14:57.334Z,0.73
2022-11-16T13:17:28.944Z,1.65
2022-11-16T13:20:17.666Z,1.63
2022-11-16T13:22:53.461Z,3.17
2022-11-16T13:25:28.697Z,1.13
2022-11-16T13:28:03.009Z,1.98
2022-11-16T13:30:40.124Z,1.70
2022-11-16T13:33:27.963Z,1.88
2022-11-16T13:35:56.371Z,2.63
2022-11-16T13:38:52.349Z,2.45
2022-11-16T13:41:33.218Z,1.17
2022-11-16T13:44:03.020Z,1.95
2022-11-16T13:46:55.743Z,1.80
2022-11-16T13:49:32.189Z,2.17
2022-11-16T13:52:22.099Z,1.48
2022-11-16T13:54:54.713Z,1.30
2022-11-16T13:57:27.175Z,1.92
2022-11-16T14:00:11.049Z,2.08
2022-11-16T14:02:42.601Z,2.05
2022-11-16T14:05:18.236Z,2.27
2022-11-16T14:07:49.885Z,3.35
2022-11-16T14:11:02.824Z,2.53
2022-11-16T14:13:42.341Z,2.47
2022-11-16T14:16:55.487Z,3.50
2022-11-16T14:19:55.799Z,1.70
2022-11-16T14:22:45.184Z,2.28
2022-11-16T14:25:35.128Z,3.45
2022-11-16T14:28:19.238Z,3.15
2022-11-16T14:30:58.040Z,3.03
2022-11-16T14:33:32.817Z,2.78
2022-11-16T14:36:04.543Z,3.72
2022-11-16T14:38:35.255Z,2.40
2022-11-16T14:41:06.277Z,2.90
2022-11-16T14:43:40.029Z,3.45
2022-11-16T14:46:15.919Z,3.40
2022-11-16T14:48:47.070Z,2.97
2022-11-16T14:51:21.774Z,3.30
2022-11-16T14:53:53.472Z,3.03
2022-11-16T14:56:22.903Z,3.33
2022-11-16T14:58:56.692Z,3.25
2022-11-16T15:01:29.313Z,3.25
2022-11-16T15:04:02.778Z,4.55
2022-11-16T15:06:43.836Z,3.10
2022-11-16T15:09:20.976Z,3.20
2022-11-16T15:12:08.528Z,3.53
2022-11-16T15:14:42.833Z,4.30
2022-11-16T15:17:18.208Z,4.80
2022-11-16T15:19:55.586Z,3.13
2022-11-16T15:22:28.014Z,2.95
2022-11-16T15:24:57.861Z,5.03
2022-11-16T15:27:36.652Z,5.07
2022-11-16T15:30:15.818Z,5.78
2022-11-16T15:32:45.243Z,5.70
2022-11-16T15:35:22.675Z,7.45
2022-11-16T15:38:03.776Z,6.20
2022-11-16T15:40:32.235Z,5.43
2022-11-16T15:43:02.417Z,5.85
2022-11-16T15:45:32.550Z,4.88
2022-11-16T15:48:03.468Z,6.95
2022-11-16T15:50:32.500Z,4.10
2022-11-16T15:53:02.120Z,6.25
2022-11-16T15:55:35.184Z,3.80
2022-11-16T15:58:06.901Z,4.72
2022-11-16T16:00:37.698Z,5.37
2022-11-16T16:03:16.172Z,4.28
2022-11-16T16:05:44.580Z,4.18
2022-11-16T16:08:36.330Z,4.65
2022-11-16T16:11:13.428Z,5.05
2022-11-16T16:13:43.713Z,4.15
2022-11-16T16:16:21.115Z,6.03
2022-11-16T16:18:49.838Z,6.50
2022-11-16T16:21:18.797Z,6.25
2022-11-16T16:23:51.064Z,6.18
2022-11-16T16:26:19.983Z,5.95
2022-11-16T16:28:48.647Z,4.20
2022-11-16T16:31:19.913Z,4.35
2022-11-16T16:33:48.137Z,4.85
2022-11-16T16:36:16.384Z,4.57
2022-11-16T16:38:45.873Z,5.00
2022-11-16T16:41:23.947Z,4.25
2022-11-16T16:43:52.663Z,3.90
2022-11-16T16:46:21.810Z,3.35
2022-11-16T16:48:51.885Z,3.75
2022-11-16T16:51:20.413Z,3.72
2022-11-16T16:53:49.114Z,3.17
2022-11-16T16:56:20.047Z,3.33
2022-11-16T16:58:50.142Z,3.85
2022-11-16T17:01:18.912Z,4.15
2022-11-16T17:03:47.458Z,4.30
2022-11-16T17:06:17.166Z,2.67
2022-11-16T17:08:45.370Z,3.35
2022-11-16T17:11:16.019Z,3.92
2022-11-16T17:13:45.745Z,3.03
2022-11-16T17:16:13.924Z,2.85
2022-11-16T17:18:42.493Z,3.45
2022-11-16T17:21:11.226Z,4.57
2022-11-16T17:23:39.724Z,4.15
2022-11-16T17:26:09.902Z,4.05
2022-11-16T17:28:38.464Z,5.50
2022-11-16T17:31:11.478Z,4.15
2022-11-16T17:33:41.363Z,5.50
2022-11-16T17:36:12.842Z,5.40
2022-11-16T17:38:41.898Z,3.67
2022-11-16T17:41:13.190Z,3.17
2022-11-16T17:43:43.167Z,5.32
2022-11-16T17:46:14.827Z,3.60
2022-11-16T17:48:45.259Z,5.00
2022-11-16T17:51:15.235Z,4.63
2022-11-16T17:53:44.391Z,5.15
2022-11-16T17:56:13.998Z,4.03
2022-11-16T17:58:42.815Z,2.78
2022-11-16T18:01:13.680Z,3.45
2022-11-16T18:03:41.988Z,3.78
2022-11-16T18:06:13.363Z,3.38
2022-11-16T18:08:43.684Z,3.60
2022-11-16T18:11:14.860Z,3.33
2022-11-16T18:13:44.742Z,3.67
2022-11-16T18:16:16.583Z,4.10
2022-11-16T18:18:45.992Z,4.07
2022-11-16T18:21:20.417Z,2.67
2022-11-16T18:23:50.708Z,5.35
2022-11-16T18:26:21.228Z,2.78
2022-11-16T18:28:49.667Z,3.08
2022-11-16T18:31:21.077Z,4.05
2022-11-16T18:33:50.286Z,3.40
2022-11-16T18:36:19.739Z,4.07
2022-11-16T18:38:48.768Z,4.68
2022-11-16T18:41:20.317Z,3.50
2022-11-16T18:43:51.414Z,3.37
2022-11-16T18:46:25.527Z,5.88
2022-11-16T18:48:57.925Z,4.03
2022-11-16T18:54:01.178Z,4.30
2022-11-16T18:56:31.562Z,3.97
2022-11-16T18:59:02.264Z,4.47
2022-11-16T19:01:32.103Z,4.35
2022-11-16T19:04:00.479Z,4.43
2022-11-16T19:06:32.201Z,3.17
2022-11-16T19:09:00.826Z,5.47
2022-11-16T19:11:29.681Z,4.72
2022-11-16T19:14:01.007Z,5.70
2022-11-16T19:16:29.510Z,3.58
2022-11-16T19:19:01.394Z,4.15
2022-11-16T19:21:30.197Z,4.45
2022-11-16T19:23:59.081Z,4.45
2022-11-16T19:26:28.919Z,3.10
2022-11-16T19:28:57.710Z,3.65
2022-11-16T19:31:27.574Z,3.13
2022-11-16T19:33:56.444Z,2.53
2022-11-16T19:36:28.607Z,1.75
2022-11-16T19:38:57.366Z,1.90
2022-11-16T19:41:26.801Z,1.35
2022-11-16T19:43:57.370Z,0.95
2022-11-16T19:46:26.243Z,1.48
2022-11-16T19:48:54.703Z,0.93
2022-11-16T19:51:26.887Z,1.45
2022-11-16T19:53:55.585Z,0.95
2022-11-16T19:56:25.072Z,0.90
2022-11-16T19:58:53.559Z,1.40
2022-11-16T20:01:25.419Z,0.63
2022-11-16T20:03:55.291Z,1.33
2022-11-16T20:06:29.184Z,0.98
2022-11-16T20:09:01.077Z,0.85
2022-11-16T20:11:33.806Z,1.02
2022-11-16T20:14:04.013Z,1.33
2022-11-16T20:16:38.692Z,1.27
2022-11-16T20:19:08.656Z,1.27
2022-11-16T20:21:40.331Z,1.38
2022-11-16T20:24:11.683Z,1.05
2022-11-16T20:26:44.043Z,1.33
2022-11-16T20:29:14.362Z,2.00
2022-11-16T20:31:45.366Z,0.68
2022-11-16T20:34:18.571Z,0.63
2022-11-16T20:36:50.823Z,1.63
2022-11-16T20:39:21.168Z,2.40
2022-11-16T20:41:49.767Z,4.82
2022-11-16T20:44:22.275Z,3.53
2022-11-16T20:46:52.468Z,1.50
2022-11-16T20:49:21.291Z,2.15
2022-11-16T20:51:51.381Z,0.82
2022-11-16T20:54:19.653Z,4.03
2022-11-16T20:56:49.710Z,2.40
2022-11-16T20:59:17.984Z,1.30
2022-11-16T21:01:48.782Z,1.63
2022-11-16T21:04:17.336Z,1.38
2022-11-16T21:06:45.644Z,1.38
2022-11-16T21:09:22.497Z,2.40
2022-11-16T21:12:08.841Z,1.67
2022-11-16T21:14:37.403Z,1.02
2022-11-16T21:17:06.319Z,2.20
2022-11-16T21:19:34.474Z,1.02
2022-11-16T21:22:03.249Z,1.08
2022-11-16T21:24:34.857Z,1.48
2022-11-16T21:27:03.230Z,1.40
2022-11-16T21:29:32.646Z,0.93
2022-11-16T21:32:01.221Z,0.40
2022-11-16T21:34:32.709Z,0.55
2022-11-16T21:37:04.451Z,0.47
2022-11-16T21:39:34.006Z,1.23
2022-11-16T21:42:02.470Z,0.80
2022-11-16T21:44:41.960Z,1.27
2022-11-16T21:47:10.473Z,1.10
2022-11-16T21:49:54.206Z,0.88
2022-11-16T21:52:28.941Z,1.35
2022-11-16T21:55:01.636Z,1.00
2022-11-16T21:57:30.167Z,0.65
2022-11-16T22:00:01.061Z,0.90
2022-11-16T22:02:40.122Z,0.70
2022-11-16T22:05:27.252Z,0.50
2022-11-16T22:07:56.295Z,0.90
2022-11-16T22:10:26.463Z,0.68
2022-11-16T22:12:55.431Z,0.55
2022-11-16T22:15:24.473Z,0.85
2022-11-16T22:17:53.115Z,1.10
2022-11-16T22:20:21.828Z,0.50
2022-11-16T22:22:50.120Z,1.10
2022-11-16T22:25:18.695Z,0.88
2022-11-16T22:28:19.250Z,0.57
2022-11-16T22:30:38.112Z,0.65
2022-11-16T22:33:06.358Z,0.57
2022-11-16T22:35:34.696Z,0.70
2022-11-16T22:38:04.707Z,0.70
2022-11-16T22:40:33.380Z,0.47
2022-11-16T22:43:03.049Z,0.40
2022-11-16T22:45:33.694Z,0.10
2022-11-16T22:48:01.867Z,0.50
2022-11-16T22:50:30.224Z,0.57
2022-11-16T22:53:00.149Z,0.40
2022-11-16T22:55:28.316Z,0.38
2022-11-16T22:57:56.971Z,0.77
2022-11-16T23:00:26.612Z,2.20
2022-11-16T23:02:56.210Z,3.17
2022-11-16T23:05:24.673Z,13.77
2022-11-16T23:07:52.983Z,3.45
2022-11-16T23:10:21.430Z,8.02
2022-11-16T23:13:07.616Z,1.10
2022-11-16T23:15:52.232Z,1.30
2022-11-16T23:18:20.910Z,6.70
2022-11-16T23:21:07.801Z,0.85
2022-11-16T23:23:53.756Z,3.30
2022-11-16T23:26:42.586Z,5.93
2022-11-16T23:29:12.172Z,0.60
2022-11-16T23:31:42.173Z,8.05
2022-11-16T23:34:11.078Z,1.30
2022-11-16T23:36:39.351Z,0.60
2022-11-16T23:39:07.604Z,4.05
2022-11-16T23:41:53.428Z,3.45
2022-11-16T23:44:22.014Z,2.45
2022-11-16T23:46:51.876Z,1.85
2022-11-16T23:49:22.178Z,2.85
2022-11-16T23:51:51.050Z,1.80
2022-11-16T23:54:19.453Z,1.02
2022-11-16T23:56:48.327Z,1.60
2022-11-16T23:59:16.658Z,1.42
